createdAt,value
2019-03-04T00:01:12.182Z,60.80
2019-03-04T00:03:53.092Z,60.41
2019-03-04T00:06:29.880Z,60.36
2019-03-04T00:09:16.474Z,60.56
2019-03-04T00:11:50.385Z,60.10
2019-03-04T00:14:25.867Z,59.98
2019-03-04T00:17:09.881Z,60.15
2019-03-04T00:19:51.514Z,60.17
2019-03-04T00:22:27.787Z,60.49
2019-03-04T00:25:08.798Z,61.63
2019-03-04T00:27:44.000Z,61.63
2019-03-04T00:30:27.115Z,62.12
2019-03-04T00:32:58.881Z,62.39
2019-03-04T00:35:36.279Z,62.70
2019-03-04T00:38:12.336Z,62.80
2019-03-04T00:40:49.325Z,63.06
2019-03-04T00:43:27.082Z,63.34
2019-03-04T00:46:01.874Z,63.42
2019-03-04T00:48:34.518Z,63.55
2019-03-04T00:51:07.447Z,63.28
2019-03-04T00:53:43.191Z,62.79
2019-03-04T00:56:22.767Z,62.75
2019-03-04T00:58:54.263Z,62.51
2019-03-04T01:01:36.390Z,62.46
2019-03-04T01:04:11.473Z,62.12
2019-03-04T01:06:50.157Z,61.79
2019-03-04T01:09:26.275Z,61.75
2019-03-04T01:12:07.583Z,61.59
2019-03-04T01:14:43.546Z,61.04
2019-03-04T01:17:19.203Z,60.80
2019-03-04T01:19:50.630Z,60.52
2019-03-04T01:22:24.217Z,59.77
2019-03-04T01:25:02.040Z,59.70
2019-03-04T01:27:58.829Z,59.53
2019-03-04T01:30:41.022Z,59.43
2019-03-04T01:33:22.557Z,59.30
2019-03-04T01:35:58.920Z,59.30
2019-03-04T01:38:41.855Z,59.25
2019-03-04T01:41:22.494Z,59.32
2019-03-04T01:44:09.985Z,58.84
2019-03-04T01:46:43.073Z,59.17
2019-03-04T01:49:22.735Z,59.40
2019-03-04T01:52:04.846Z,59.35
2019-03-04T01:54:44.382Z,59.38
2019-03-04T01:57:24.920Z,59.57
2019-03-04T02:00:16.057Z,59.48
2019-03-04T02:02:48.935Z,59.76
2019-03-04T02:05:21.112Z,59.71
2019-03-04T02:07:54.103Z,59.69
2019-03-04T02:10:24.726Z,59.92
2019-03-04T02:12:55.008Z,60.14
2019-03-04T02:15:25.687Z,60.27
2019-03-04T02:17:56.106Z,60.77
2019-03-04T02:20:26.359Z,60.87
2019-03-04T02:22:58.364Z,61.46
2019-03-04T02:26:19.984Z,61.64
2019-03-04T02:28:50.251Z,61.64
2019-03-04T02:31:20.535Z,61.57
2019-03-04T02:33:51.122Z,61.51
2019-03-04T02:36:21.490Z,61.58
2019-03-04T02:38:53.330Z,61.83
2019-03-04T02:41:34.226Z,61.86
2019-03-04T02:44:25.778Z,61.69
2019-03-04T02:46:35.047Z,61.55
2019-03-04T02:49:05.638Z,61.65
2019-03-04T02:51:36.016Z,61.94
2019-03-04T02:54:06.784Z,61.70
2019-03-04T02:56:49.157Z,61.37
2019-03-04T02:59:20.045Z,61.03
2019-03-04T03:01:50.357Z,61.12
2019-03-04T03:04:22.234Z,60.99
2019-03-04T03:06:52.540Z,60.81
2019-03-04T03:09:24.688Z,60.96
2019-03-04T03:11:58.246Z,60.76
2019-03-04T03:14:28.325Z,60.42
2019-03-04T03:16:58.717Z,60.61
2019-03-04T03:19:29.228Z,60.12
2019-03-04T03:24:37.096Z,59.71
2019-03-04T03:27:10.764Z,59.32
2019-03-04T03:30:02.044Z,58.75
2019-03-04T03:32:38.251Z,58.01
2019-03-04T03:35:10.594Z,57.71
2019-03-04T03:37:49.231Z,57.58
2019-03-04T03:40:16.242Z,56.92
2019-03-04T03:42:46.557Z,56.83
2019-03-04T03:45:17.609Z,55.87
2019-03-04T03:47:50.909Z,55.62
2019-03-04T03:50:21.443Z,55.36
2019-03-04T03:52:52.945Z,54.68
2019-03-04T03:55:24.721Z,54.00
2019-03-04T03:57:56.516Z,54.14
2019-03-04T04:00:26.979Z,54.23
2019-03-04T04:02:59.290Z,54.67
2019-03-04T04:05:29.630Z,54.90
2019-03-04T04:08:01.502Z,55.02
2019-03-04T04:10:35.885Z,55.38
2019-03-04T04:13:08.223Z,55.50
2019-03-04T04:15:38.557Z,55.54
2019-03-04T04:18:14.677Z,55.37
2019-03-04T04:20:43.903Z,55.25
2019-03-04T04:23:15.612Z,55.50
2019-03-04T04:25:49.294Z,55.39
2019-03-04T04:28:19.590Z,55.03
2019-03-04T04:30:49.990Z,54.99
2019-03-04T04:33:20.496Z,54.92
2019-03-04T04:35:51.087Z,54.50
2019-03-04T04:38:21.412Z,54.51
2019-03-04T04:40:51.975Z,53.12
2019-03-04T04:43:22.481Z,52.71
2019-03-04T04:45:53.067Z,52.01
2019-03-04T04:48:23.558Z,52.01
2019-03-04T04:50:54.015Z,51.39
2019-03-04T04:53:27.399Z,51.24
2019-03-04T04:55:57.807Z,51.16
2019-03-04T04:58:28.144Z,51.12
2019-03-04T05:01:01.783Z,51.16
2019-03-04T05:03:32.104Z,51.01
2019-03-04T05:06:02.487Z,51.20
2019-03-04T05:08:36.083Z,51.26
2019-03-04T05:11:06.651Z,51.37
2019-03-04T05:13:36.914Z,51.13
2019-03-04T05:16:07.441Z,51.10
2019-03-04T05:18:38.293Z,51.53
2019-03-04T05:21:08.679Z,51.45
2019-03-04T05:23:42.377Z,51.58
2019-03-04T05:26:12.869Z,51.82
2019-03-04T05:28:45.942Z,52.65
2019-03-04T05:31:16.606Z,52.47
2019-03-04T05:33:46.939Z,52.48
2019-03-04T05:36:19.797Z,52.08
2019-03-04T05:38:50.200Z,52.09
2019-03-04T05:41:21.731Z,51.65
2019-03-04T05:43:55.076Z,51.95
2019-03-04T05:46:27.091Z,51.95
2019-03-04T05:48:57.443Z,53.06
2019-03-04T05:51:29.578Z,55.08
2019-03-04T05:53:59.978Z,57.24
2019-03-04T05:56:30.351Z,58.06
2019-03-04T05:59:02.209Z,58.74
2019-03-04T06:01:35.487Z,60.20
2019-03-04T06:04:11.058Z,62.92
2019-03-04T06:06:49.093Z,71.68
2019-03-04T06:09:22.922Z,75.60
2019-03-04T06:11:54.638Z,77.71
2019-03-04T06:14:25.172Z,79.19
2019-03-04T06:17:23.447Z,79.53
2019-03-04T06:19:32.108Z,80.46
2019-03-04T06:22:03.241Z,80.96
2019-03-04T06:24:43.941Z,80.86
2019-03-04T06:27:11.531Z,80.21
2019-03-04T06:29:42.136Z,79.33
2019-03-04T06:32:13.206Z,79.80
2019-03-04T06:34:43.541Z,80.04
2019-03-04T06:37:16.030Z,80.34
2019-03-04T06:39:47.952Z,80.34
2019-03-04T06:42:19.114Z,79.92
2019-03-04T06:44:52.647Z,79.17
2019-03-04T06:47:26.433Z,78.48
2019-03-04T06:49:56.710Z,78.48
2019-03-04T06:52:29.539Z,79.01
2019-03-04T06:55:44.625Z,78.62
2019-03-04T06:58:17.892Z,78.18
2019-03-04T07:01:06.655Z,77.43
2019-03-04T07:03:43.210Z,74.28
2019-03-04T07:06:13.596Z,72.92
2019-03-04T07:09:17.935Z,71.86
2019-03-04T07:11:58.856Z,70.21
2019-03-04T07:14:32.542Z,70.21
2019-03-04T07:17:03.142Z,70.39
2019-03-04T07:19:38.544Z,70.94
2019-03-04T07:22:31.750Z,70.82
2019-03-04T07:25:02.882Z,70.63
2019-03-04T07:27:33.480Z,70.46
2019-03-04T07:30:19.784Z,69.44
2019-03-04T07:32:55.033Z,69.57
2019-03-04T07:35:25.509Z,68.27
2019-03-04T07:38:15.166Z,67.84
2019-03-04T07:40:54.400Z,66.71
2019-03-04T07:43:27.158Z,63.61
2019-03-04T07:45:57.514Z,63.98
2019-03-04T07:48:32.439Z,63.98
2019-03-04T07:51:11.077Z,64.09
2019-03-04T07:53:46.228Z,64.09
2019-03-04T07:56:14.081Z,64.19
2019-03-04T07:58:45.791Z,65.46
2019-03-04T08:01:16.452Z,65.46
2019-03-04T08:03:49.440Z,65.73
2019-03-04T08:06:20.135Z,65.69
2019-03-04T08:09:14.336Z,66.63
2019-03-04T08:12:43.842Z,66.26
2019-03-04T08:15:21.372Z,66.95
2019-03-04T08:17:50.320Z,67.85
2019-03-04T08:20:22.278Z,67.96
2019-03-04T08:22:54.380Z,67.46
2019-03-04T08:25:24.725Z,66.04
2019-03-04T08:28:09.058Z,64.45
2019-03-04T08:30:32.079Z,59.75
2019-03-04T08:33:02.641Z,52.71
2019-03-04T08:35:35.680Z,45.97
2019-03-04T08:38:13.981Z,40.65
2019-03-04T08:40:44.340Z,38.87
2019-03-04T08:43:17.009Z,37.89
2019-03-04T08:45:57.353Z,38.94
2019-03-04T08:48:29.604Z,38.07
2019-03-04T08:51:02.157Z,39.07
2019-03-04T08:53:37.468Z,36.95
2019-03-04T08:56:08.011Z,35.92
2019-03-04T08:58:40.249Z,39.75
2019-03-04T09:01:18.857Z,39.75
2019-03-04T09:03:49.430Z,40.03
2019-03-04T09:06:21.271Z,42.83
2019-03-04T09:08:53.182Z,44.72
2019-03-04T09:11:25.823Z,46.50
2019-03-04T09:13:56.389Z,47.92
2019-03-04T09:16:29.776Z,48.34
2019-03-04T09:19:00.509Z,48.54
2019-03-04T09:21:30.829Z,49.35
2019-03-04T09:24:01.401Z,48.76
2019-03-04T09:26:33.551Z,48.76
2019-03-04T09:29:04.303Z,50.37
2019-03-04T09:31:35.918Z,51.60
2019-03-04T09:34:11.971Z,55.92
2019-03-04T09:36:43.267Z,57.68
2019-03-04T09:39:19.563Z,60.90
2019-03-04T09:41:54.326Z,63.65
2019-03-04T09:44:24.989Z,66.06
2019-03-04T09:46:55.363Z,68.95
2019-03-04T09:49:30.565Z,70.46
2019-03-04T09:52:02.522Z,71.16
2019-03-04T09:54:34.343Z,71.84
2019-03-04T09:57:09.185Z,74.09
2019-03-04T09:59:39.547Z,74.09
2019-03-04T10:02:16.508Z,74.98
2019-03-04T10:05:26.008Z,75.45
2019-03-04T10:08:32.784Z,75.99
2019-03-04T10:11:24.975Z,76.00
2019-03-04T10:14:40.813Z,75.11
2019-03-04T10:17:23.166Z,73.91
2019-03-04T10:20:37.129Z,70.10
2019-03-04T10:23:15.915Z,68.01
2019-03-04T10:29:40.766Z,63.82
2019-03-04T10:32:47.721Z,63.82
2019-03-04T10:36:04.893Z,63.73
2019-03-04T10:39:05.168Z,62.71
2019-03-04T10:42:29.842Z,61.95
2019-03-04T10:45:39.941Z,61.43
2019-03-04T10:48:10.588Z,59.89
2019-03-04T10:50:43.424Z,61.98
2019-03-04T10:53:14.971Z,64.61
2019-03-04T10:55:45.262Z,66.42
2019-03-04T10:58:17.081Z,69.87
2019-03-04T11:00:47.337Z,73.93
2019-03-04T11:03:18.018Z,76.24
2019-03-04T11:05:52.684Z,77.78
2019-03-04T11:08:23.073Z,78.91
2019-03-04T11:10:53.537Z,79.72
2019-03-04T11:13:31.444Z,80.33
2019-03-04T11:16:01.325Z,81.22
2019-03-04T11:18:33.885Z,81.81
2019-03-04T11:21:11.843Z,81.43
2019-03-04T11:23:47.312Z,80.54
2019-03-04T11:26:20.250Z,78.80
2019-03-04T11:28:51.992Z,77.43
2019-03-04T11:31:24.215Z,78.15
2019-03-04T11:33:54.538Z,79.32
2019-03-04T11:36:28.620Z,79.60
2019-03-04T11:39:23.209Z,79.87
2019-03-04T11:41:55.002Z,80.43
2019-03-04T11:44:26.909Z,79.81
2019-03-04T11:47:12.035Z,79.03
2019-03-04T11:49:47.607Z,76.90
2019-03-04T11:52:19.679Z,76.72
2019-03-04T11:54:50.592Z,76.56
2019-03-04T11:57:24.534Z,75.19
2019-03-04T11:59:56.710Z,74.69
2019-03-04T12:02:38.579Z,75.17
2019-03-04T12:05:08.335Z,75.23
2019-03-04T12:07:43.459Z,75.16
2019-03-04T12:10:14.892Z,74.13
2019-03-04T12:12:48.860Z,72.85
2019-03-04T12:15:24.422Z,68.12
2019-03-04T12:17:54.937Z,68.10
2019-03-04T12:20:27.067Z,65.00
2019-03-04T12:22:57.437Z,65.00
2019-03-04T12:25:29.013Z,65.42
2019-03-04T12:27:59.381Z,66.25
2019-03-04T12:30:31.436Z,66.85
2019-03-04T12:33:01.771Z,66.88
2019-03-04T12:35:33.186Z,67.03
2019-03-04T12:38:03.818Z,68.09
2019-03-04T12:40:35.525Z,66.08
2019-03-04T12:43:06.266Z,66.08
2019-03-04T12:45:36.919Z,65.58
2019-03-04T12:48:09.298Z,65.61
2019-03-04T12:50:41.687Z,65.80
2019-03-04T12:53:12.084Z,64.87
2019-03-04T12:55:43.182Z,64.62
2019-03-04T12:58:15.813Z,64.25
2019-03-04T13:00:47.989Z,64.10
2019-03-04T13:03:23.367Z,65.62
2019-03-04T13:05:54.285Z,65.44
2019-03-04T13:08:24.714Z,65.48
2019-03-04T13:10:58.132Z,65.50
2019-03-04T13:13:29.512Z,65.42
2019-03-04T13:16:03.184Z,64.97
2019-03-04T13:18:33.768Z,65.56
2019-03-04T13:21:14.779Z,66.11
2019-03-04T13:23:41.648Z,67.09
2019-03-04T13:26:13.915Z,65.72
2019-03-04T13:28:45.699Z,66.70
2019-03-04T13:31:16.290Z,66.21
2019-03-04T13:33:47.248Z,66.12
2019-03-04T13:36:17.878Z,65.35
2019-03-04T13:38:48.299Z,63.71
2019-03-04T13:41:20.142Z,63.35
2019-03-04T13:43:52.121Z,62.91
2019-03-04T13:46:22.490Z,62.00
2019-03-04T13:48:57.463Z,62.15
2019-03-04T13:51:31.662Z,61.66
2019-03-04T13:54:02.350Z,60.97
2019-03-04T13:56:38.337Z,59.53
2019-03-04T13:59:13.772Z,57.47
2019-03-04T14:01:48.445Z,56.67
2019-03-04T14:04:20.466Z,55.75
2019-03-04T14:06:53.499Z,54.68
2019-03-04T14:09:23.991Z,53.45
2019-03-04T14:11:58.438Z,52.50
2019-03-04T14:14:30.496Z,52.59
2019-03-04T14:17:01.338Z,51.18
2019-03-04T14:19:33.506Z,50.41
2019-03-04T14:22:05.436Z,50.41
2019-03-04T14:24:36.026Z,50.28
2019-03-04T14:27:08.129Z,50.97
2019-03-04T14:29:40.305Z,51.16
2019-03-04T14:32:14.933Z,49.43
2019-03-04T14:34:51.112Z,50.03
2019-03-04T14:37:21.968Z,48.79
2019-03-04T14:39:52.514Z,47.74
2019-03-04T14:42:26.206Z,45.68
2019-03-04T14:45:03.541Z,45.44
2019-03-04T14:47:35.350Z,44.79
2019-03-04T14:50:16.512Z,44.51
2019-03-04T14:52:49.962Z,44.40
2019-03-04T14:55:20.867Z,44.95
2019-03-04T14:57:51.737Z,45.29
2019-03-04T15:00:29.131Z,45.36
2019-03-04T15:03:02.869Z,46.10
2019-03-04T15:05:35.745Z,45.75
2019-03-04T15:08:14.964Z,46.52
2019-03-04T15:10:45.506Z,46.08
2019-03-04T15:13:21.722Z,45.96
2019-03-04T15:16:01.155Z,46.10
2019-03-04T15:18:26.063Z,46.38
2019-03-04T15:21:02.369Z,46.15
2019-03-04T15:23:34.829Z,47.01
2019-03-04T15:26:06.803Z,46.76
2019-03-04T15:28:37.133Z,46.80
2019-03-04T15:31:10.306Z,47.29
2019-03-04T15:33:40.670Z,46.55
2019-03-04T15:36:13.835Z,46.25
2019-03-04T15:38:44.572Z,46.38
2019-03-04T15:41:15.630Z,45.38
2019-03-04T15:43:47.483Z,45.98
2019-03-04T15:46:19.433Z,46.17
2019-03-04T15:48:50.037Z,45.91
2019-03-04T15:51:23.907Z,46.33
2019-03-04T15:53:54.242Z,46.27
2019-03-04T15:56:26.406Z,47.60
2019-03-04T15:58:56.756Z,46.50
2019-03-04T16:01:29.612Z,46.01
2019-03-04T16:04:00.198Z,45.12
2019-03-04T16:06:34.468Z,45.69
2019-03-04T16:09:11.679Z,44.85
2019-03-04T16:11:42.633Z,45.17
2019-03-04T16:14:13.315Z,45.02
2019-03-04T16:16:44.875Z,45.25
2019-03-04T16:19:16.606Z,45.36
2019-03-04T16:21:47.847Z,45.48
2019-03-04T16:24:20.378Z,46.09
2019-03-04T16:26:52.392Z,46.27
2019-03-04T16:29:22.856Z,45.89
2019-03-04T16:31:53.399Z,45.38
2019-03-04T16:34:24.169Z,45.99
2019-03-04T16:36:56.607Z,46.04
2019-03-04T16:39:30.179Z,46.69
2019-03-04T16:42:00.834Z,46.32
2019-03-04T16:44:31.184Z,47.14
2019-03-04T16:47:08.097Z,46.49
2019-03-04T16:49:38.441Z,47.49
2019-03-04T16:52:09.662Z,46.75
2019-03-04T16:54:40.320Z,47.03
2019-03-04T16:57:14.366Z,48.20
2019-03-04T16:59:45.032Z,48.59
2019-03-04T17:02:19.343Z,49.00
2019-03-04T17:04:50.163Z,49.53
2019-03-04T17:07:20.491Z,50.12
2019-03-04T17:09:51.563Z,50.92
2019-03-04T17:12:21.856Z,51.00
2019-03-04T17:14:53.711Z,51.59
2019-03-04T17:17:26.060Z,51.85
2019-03-04T17:19:56.684Z,52.30
2019-03-04T17:22:28.459Z,52.56
2019-03-04T17:25:00.688Z,52.91
2019-03-04T17:27:31.068Z,53.57
2019-03-04T17:30:05.217Z,53.73
2019-03-04T17:32:38.181Z,53.60
2019-03-04T17:35:09.780Z,53.87
2019-03-04T17:37:40.253Z,54.42
2019-03-04T17:40:12.430Z,54.59
2019-03-04T17:42:43.037Z,55.01
2019-03-04T17:45:17.240Z,54.57
2019-03-04T17:47:47.989Z,54.93
2019-03-04T17:50:25.005Z,54.83
2019-03-04T17:52:55.595Z,54.83
2019-03-04T17:55:26.057Z,54.80
2019-03-04T17:57:58.280Z,54.49
2019-03-04T18:00:29.921Z,54.66
2019-03-04T18:03:02.914Z,54.77
2019-03-04T18:05:33.663Z,54.77
2019-03-04T18:08:04.655Z,54.87
2019-03-04T18:10:35.449Z,54.69
2019-03-04T18:13:07.802Z,54.70
2019-03-04T18:15:40.237Z,55.20
2019-03-04T18:18:13.646Z,55.55
2019-03-04T18:20:44.620Z,55.33
2019-03-04T18:23:16.325Z,55.61
2019-03-04T18:25:53.979Z,55.51
2019-03-04T18:29:02.786Z,55.28
2019-03-04T18:32:09.762Z,55.28
2019-03-04T18:35:18.393Z,55.32
2019-03-04T18:38:28.901Z,55.15
2019-03-04T18:41:40.388Z,55.55
2019-03-04T18:44:46.069Z,56.00
2019-03-04T18:48:06.741Z,56.33
2019-03-04T18:50:37.216Z,56.87
2019-03-04T18:53:09.982Z,57.08
2019-03-04T18:55:40.520Z,56.95
2019-03-04T18:58:12.684Z,57.45
2019-03-04T19:00:46.186Z,57.67
2019-03-04T19:03:16.827Z,58.11
2019-03-04T19:05:47.793Z,58.35
2019-03-04T19:08:18.402Z,58.61
2019-03-04T19:10:48.938Z,58.66
2019-03-04T19:13:19.837Z,58.56
2019-03-04T19:15:53.625Z,58.64
2019-03-04T19:18:23.927Z,58.59
2019-03-04T19:20:55.843Z,58.66
2019-03-04T19:23:26.646Z,58.82
2019-03-04T19:25:59.115Z,59.27
2019-03-04T19:28:32.631Z,59.62
2019-03-04T19:31:09.558Z,59.96
2019-03-04T19:33:38.685Z,60.20
2019-03-04T19:36:12.047Z,60.35
2019-03-04T19:38:43.528Z,60.63
2019-03-04T19:41:14.178Z,60.79
2019-03-04T19:43:48.156Z,61.10
2019-03-04T19:46:18.670Z,61.54
2019-03-04T19:48:51.420Z,61.72
2019-03-04T19:51:21.787Z,61.97
2019-03-04T19:53:54.987Z,61.92
2019-03-04T19:56:26.239Z,61.95
2019-03-04T19:58:57.160Z,61.93
2019-03-04T20:01:28.066Z,62.25
2019-03-04T20:03:58.746Z,62.39
2019-03-04T20:06:30.400Z,61.96
2019-03-04T20:09:06.940Z,61.98
2019-03-04T20:11:38.093Z,62.04
2019-03-04T20:14:12.454Z,62.12
2019-03-04T20:16:43.363Z,61.71
2019-03-04T20:19:18.964Z,61.16
2019-03-04T20:21:50.660Z,60.92
2019-03-04T20:24:22.271Z,60.68
2019-03-04T20:26:52.637Z,60.69
2019-03-04T20:29:37.859Z,60.66
2019-03-04T20:31:55.347Z,60.66
2019-03-04T20:34:25.804Z,60.24
2019-03-04T20:36:58.012Z,60.29
2019-03-04T20:39:28.806Z,60.12
2019-03-04T20:42:00.861Z,60.05
2019-03-04T20:44:31.264Z,59.93
2019-03-04T20:47:03.366Z,59.98
2019-03-04T20:49:33.703Z,60.19
2019-03-04T20:52:05.271Z,60.16
2019-03-04T20:54:37.987Z,60.28
2019-03-04T20:57:08.191Z,60.25
2019-03-04T20:59:38.725Z,62.79
2019-03-04T21:02:09.314Z,65.05
2019-03-04T21:04:59.001Z,67.56
2019-03-04T21:07:10.343Z,70.43
2019-03-04T21:09:42.216Z,73.96
2019-03-04T21:12:19.769Z,76.67
2019-03-04T21:14:51.753Z,78.36
2019-03-04T21:17:24.971Z,79.61
2019-03-04T21:19:56.007Z,80.23
2019-03-04T21:22:31.062Z,80.73
2019-03-04T21:25:01.548Z,81.01
2019-03-04T21:27:36.442Z,81.47
2019-03-04T21:31:08.802Z,81.67
2019-03-04T21:34:11.218Z,81.98
2019-03-04T21:37:02.366Z,82.36
2019-03-04T21:39:36.035Z,82.69
2019-03-04T21:42:26.592Z,82.79
2019-03-04T21:48:15.192Z,82.77
2019-03-04T21:51:09.321Z,82.88
2019-03-04T21:53:43.889Z,82.95
2019-03-04T21:56:38.730Z,82.94
2019-03-04T21:59:20.878Z,83.04
2019-03-04T22:02:28.566Z,83.17
2019-03-04T22:05:00.979Z,83.17
2019-03-04T22:07:42.783Z,83.04
2019-03-04T22:10:15.246Z,83.07
2019-03-04T22:12:50.885Z,83.11
2019-03-04T22:15:28.035Z,83.02
2019-03-04T22:18:00.167Z,82.85
2019-03-04T22:20:30.857Z,82.73
2019-03-04T22:23:04.557Z,82.42
2019-03-04T22:25:47.825Z,79.95
2019-03-04T22:28:23.908Z,79.95
2019-03-04T22:30:54.167Z,79.13
2019-03-04T22:33:28.533Z,78.66
2019-03-04T22:41:13.749Z,77.43
2019-03-04T22:43:47.087Z,77.51
2019-03-04T22:46:18.504Z,77.23
2019-03-04T22:48:48.851Z,76.96
2019-03-04T22:51:19.482Z,76.64
2019-03-04T22:53:50.883Z,76.92
2019-03-04T22:56:21.228Z,76.39
2019-03-04T22:58:51.991Z,75.59
2019-03-04T23:01:42.559Z,75.80
2019-03-04T23:04:37.271Z,75.36
2019-03-04T23:07:35.048Z,75.18
2019-03-04T23:10:30.417Z,74.80
2019-03-04T23:13:28.407Z,73.91
2019-03-04T23:16:00.719Z,72.80
2019-03-04T23:18:31.346Z,72.45
2019-03-04T23:21:01.999Z,72.61
2019-03-04T23:23:32.618Z,72.41
2019-03-04T23:26:02.956Z,72.49
2019-03-04T23:28:33.319Z,72.08
2019-03-04T23:31:03.636Z,72.29
2019-03-04T23:33:34.227Z,72.24
2019-03-04T23:36:04.547Z,71.58
2019-03-04T23:38:36.257Z,71.81
2019-03-04T23:41:06.515Z,71.67
2019-03-04T23:43:37.004Z,71.75
2019-03-04T23:46:07.288Z,71.17
2019-03-04T23:48:39.759Z,70.86
2019-03-04T23:51:10.361Z,70.37
2019-03-04T23:53:41.898Z,70.48
2019-03-04T23:56:12.847Z,70.80
2019-03-04T23:58:45.059Z,71.25
